sensor_id;sensor_type;location;lat;lon;timestamp;P1;durP1;ratioP1;P2;durP2;ratioP2
29210;SDS011;16250;49.932;10.980;2024-03-08T00:00:07;33.00;;;28.00;;
29210;SDS011;16250;49.932;10.980;2024-03-08T00:02:41;31.65;;;26.83;;
29210;SDS011;16250;49.932;10.980;2024-03-08T00:05:07;32.80;;;27.30;;
29210;SDS011;16250;49.932;10.980;2024-03-08T00:07:40;34.50;;;29.58;;
29210;SDS011;16250;49.932;10.980;2024-03-08T00:10:07;34.40;;;28.25;;
29210;SDS011;16250;49.932;10.980;2024-03-08T00:12:40;35.35;;;29.10;;
29210;SDS011;16250;49.932;10.980;2024-03-08T00:15:07;33.95;;;27.27;;
29210;SDS011;16250;49.932;10.980;2024-03-08T00:17:34;33.63;;;28.67;;
29210;SDS011;16250;49.932;10.980;2024-03-08T00:19:59;34.70;;;29.90;;
29210;SDS011;16250;49.932;10.980;2024-03-08T00:22:25;33.30;;;28.40;;
29210;SDS011;16250;49.932;10.980;2024-03-08T00:24:50;35.05;;;29.13;;
29210;SDS011;16250;49.932;10.980;2024-03-08T00:27:16;32.70;;;28.50;;
29210;SDS011;16250;49.932;10.980;2024-03-08T00:29:41;33.72;;;27.75;;
29210;SDS011;16250;49.932;10.980;2024-03-08T00:32:07;35.67;;;29.42;;
29210;SDS011;16250;49.932;10.980;2024-03-08T00:34:36;35.45;;;29.30;;
29210;SDS011;16250;49.932;10.980;2024-03-08T00:37:04;34.00;;;28.58;;
29210;SDS011;16250;49.932;10.980;2024-03-08T00:39:30;33.05;;;29.15;;
29210;SDS011;16250;49.932;10.980;2024-03-08T00:41:55;34.60;;;28.83;;
29210;SDS011;16250;49.932;10.980;2024-03-08T00:44:21;35.15;;;29.80;;
29210;SDS011;16250;49.932;10.980;2024-03-08T00:46:46;37.28;;;30.38;;
29210;SDS011;16250;49.932;10.980;2024-03-08T00:49:12;34.95;;;29.48;;
29210;SDS011;16250;49.932;10.980;2024-03-08T00:51:37;34.95;;;29.92;;
29210;SDS011;16250;49.932;10.980;2024-03-08T00:54:03;34.47;;;30.23;;
29210;SDS011;16250;49.932;10.980;2024-03-08T00:56:29;34.67;;;29.58;;
29210;SDS011;16250;49.932;10.980;2024-03-08T00:58:54;35.55;;;29.35;;
29210;SDS011;16250;49.932;10.980;2024-03-08T01:01:19;37.35;;;29.75;;
29210;SDS011;16250;49.932;10.980;2024-03-08T01:03:45;35.63;;;29.58;;
29210;SDS011;16250;49.932;10.980;2024-03-08T01:06:11;35.15;;;28.77;;
29210;SDS011;16250;49.932;10.980;2024-03-08T01:08:37;33.15;;;28.85;;
29210;SDS011;16250;49.932;10.980;2024-03-08T01:11:06;35.72;;;28.52;;
29210;SDS011;16250;49.932;10.980;2024-03-08T01:13:32;36.40;;;30.17;;
29210;SDS011;16250;49.932;10.980;2024-03-08T01:15:57;35.00;;;28.58;;
29210;SDS011;16250;49.932;10.980;2024-03-08T01:18:23;34.28;;;28.98;;
29210;SDS011;16250;49.932;10.980;2024-03-08T01:20:48;34.40;;;29.23;;
29210;SDS011;16250;49.932;10.980;2024-03-08T01:23:13;36.58;;;29.20;;
29210;SDS011;16250;49.932;10.980;2024-03-08T01:25:39;35.95;;;30.38;;
29210;SDS011;16250;49.932;10.980;2024-03-08T01:28:06;35.80;;;30.52;;
29210;SDS011;16250;49.932;10.980;2024-03-08T01:30:32;36.78;;;30.25;;
29210;SDS011;16250;49.932;10.980;2024-03-08T01:32:59;33.75;;;28.90;;
29210;SDS011;16250;49.932;10.980;2024-03-08T01:35:24;36.80;;;29.10;;
29210;SDS011;16250;49.932;10.980;2024-03-08T01:37:51;34.60;;;28.05;;
29210;SDS011;16250;49.932;10.980;2024-03-08T01:40:17;33.45;;;28.98;;
29210;SDS011;16250;49.932;10.980;2024-03-08T01:42:42;34.25;;;28.75;;
29210;SDS011;16250;49.932;10.980;2024-03-08T01:45:08;33.22;;;28.20;;
29210;SDS011;16250;49.932;10.980;2024-03-08T01:47:34;34.78;;;29.15;;
29210;SDS011;16250;49.932;10.980;2024-03-08T01:50:00;37.03;;;30.27;;
29210;SDS011;16250;49.932;10.980;2024-03-08T01:52:31;34.60;;;28.55;;
29210;SDS011;16250;49.932;10.980;2024-03-08T01:55:01;31.00;;;27.55;;
29210;SDS011;16250;49.932;10.980;2024-03-08T01:57:29;33.05;;;28.67;;
29210;SDS011;16250;49.932;10.980;2024-03-08T01:59:56;32.38;;;28.52;;
29210;SDS011;16250;49.932;10.980;2024-03-08T02:02:22;29.58;;;26.38;;
29210;SDS011;16250;49.932;10.980;2024-03-08T02:04:48;34.03;;;28.27;;
29210;SDS011;16250;49.932;10.980;2024-03-08T02:07:14;33.35;;;28.50;;
29210;SDS011;16250;49.932;10.980;2024-03-08T02:09:39;31.88;;;28.38;;
29210;SDS011;16250;49.932;10.980;2024-03-08T02:12:05;32.65;;;27.45;;
29210;SDS011;16250;49.932;10.980;2024-03-08T02:14:35;34.90;;;28.48;;
29210;SDS011;16250;49.932;10.980;2024-03-08T02:17:00;32.08;;;28.20;;
29210;SDS011;16250;49.932;10.980;2024-03-08T02:19:26;32.50;;;27.95;;
29210;SDS011;16250;49.932;10.980;2024-03-08T02:21:51;33.35;;;28.70;;
29210;SDS011;16250;49.932;10.980;2024-03-08T02:24:17;34.60;;;29.20;;
29210;SDS011;16250;49.932;10.980;2024-03-08T02:26:42;32.53;;;28.27;;
29210;SDS011;16250;49.932;10.980;2024-03-08T02:29:08;34.60;;;28.63;;
29210;SDS011;16250;49.932;10.980;2024-03-08T02:31:34;32.65;;;28.15;;
29210;SDS011;16250;49.932;10.980;2024-03-08T02:33:59;34.35;;;27.95;;
29210;SDS011;16250;49.932;10.980;2024-03-08T02:36:25;32.45;;;27.70;;
29210;SDS011;16250;49.932;10.980;2024-03-08T02:38:50;32.85;;;28.20;;
29210;SDS011;16250;49.932;10.980;2024-03-08T02:41:16;33.35;;;29.27;;
29210;SDS011;16250;49.932;10.980;2024-03-08T02:43:41;32.92;;;29.35;;
29210;SDS011;16250;49.932;10.980;2024-03-08T02:46:06;33.58;;;28.25;;
29210;SDS011;16250;49.932;10.980;2024-03-08T02:48:32;33.42;;;29.17;;
29210;SDS011;16250;49.932;10.980;2024-03-08T02:50:57;36.50;;;30.95;;
29210;SDS011;16250;49.932;10.980;2024-03-08T02:53:23;34.53;;;29.08;;
29210;SDS011;16250;49.932;10.980;2024-03-08T02:55:49;36.40;;;30.33;;
29210;SDS011;16250;49.932;10.980;2024-03-08T02:58:15;37.67;;;31.85;;
29210;SDS011;16250;49.932;10.980;2024-03-08T03:00:40;34.42;;;30.33;;
29210;SDS011;16250;49.932;10.980;2024-03-08T03:03:06;36.38;;;30.83;;
29210;SDS011;16250;49.932;10.980;2024-03-08T03:05:32;35.38;;;29.60;;
29210;SDS011;16250;49.932;10.980;2024-03-08T03:07:58;38.10;;;32.03;;
29210;SDS011;16250;49.932;10.980;2024-03-08T03:10:24;36.53;;;31.20;;
29210;SDS011;16250;49.932;10.980;2024-03-08T03:12:50;34.53;;;29.83;;
29210;SDS011;16250;49.932;10.980;2024-03-08T03:15:15;34.80;;;29.63;;
29210;SDS011;16250;49.932;10.980;2024-03-08T03:17:47;35.70;;;29.88;;
29210;SDS011;16250;49.932;10.980;2024-03-08T03:20:14;34.53;;;29.15;;
29210;SDS011;16250;49.932;10.980;2024-03-08T03:22:42;38.05;;;30.17;;
29210;SDS011;16250;49.932;10.980;2024-03-08T03:25:12;34.80;;;30.65;;
29210;SDS011;16250;49.932;10.980;2024-03-08T03:27:37;32.25;;;28.30;;
29210;SDS011;16250;49.932;10.980;2024-03-08T03:30:04;33.38;;;28.83;;
29210;SDS011;16250;49.932;10.980;2024-03-08T03:32:46;33.20;;;28.73;;
29210;SDS011;16250;49.932;10.980;2024-03-08T03:35:13;34.50;;;30.65;;
29210;SDS011;16250;49.932;10.980;2024-03-08T03:37:40;36.03;;;29.30;;
29210;SDS011;16250;49.932;10.980;2024-03-08T03:40:08;34.58;;;29.70;;
29210;SDS011;16250;49.932;10.980;2024-03-08T03:42:34;35.88;;;30.15;;
29210;SDS011;16250;49.932;10.980;2024-03-08T03:44:59;36.33;;;30.60;;
29210;SDS011;16250;49.932;10.980;2024-03-08T03:47:24;40.85;;;30.75;;
29210;SDS011;16250;49.932;10.980;2024-03-08T03:49:52;36.85;;;30.13;;
29210;SDS011;16250;49.932;10.980;2024-03-08T03:52:18;33.88;;;28.90;;
29210;SDS011;16250;49.932;10.980;2024-03-08T03:54:44;35.47;;;29.90;;
29210;SDS011;16250;49.932;10.980;2024-03-08T03:57:09;37.15;;;30.88;;
29210;SDS011;16250;49.932;10.980;2024-03-08T03:59:34;33.83;;;29.25;;
29210;SDS011;16250;49.932;10.980;2024-03-08T04:02:00;36.13;;;30.10;;
29210;SDS011;16250;49.932;10.980;2024-03-08T04:04:25;34.92;;;30.58;;
29210;SDS011;16250;49.932;10.980;2024-03-08T04:06:51;34.55;;;30.80;;
29210;SDS011;16250;49.932;10.980;2024-03-08T04:09:16;38.85;;;31.60;;
29210;SDS011;16250;49.932;10.980;2024-03-08T04:11:44;35.95;;;30.55;;
29210;SDS011;16250;49.932;10.980;2024-03-08T04:14:09;36.78;;;31.13;;
29210;SDS011;16250;49.932;10.980;2024-03-08T04:16:35;37.05;;;31.45;;
29210;SDS011;16250;49.932;10.980;2024-03-08T04:19:01;39.00;;;32.42;;
29210;SDS011;16250;49.932;10.980;2024-03-08T04:21:29;37.03;;;30.70;;
29210;SDS011;16250;49.932;10.980;2024-03-08T04:23:55;37.40;;;31.92;;
29210;SDS011;16250;49.932;10.980;2024-03-08T04:26:21;38.70;;;31.23;;
29210;SDS011;16250;49.932;10.980;2024-03-08T04:28:46;39.08;;;32.50;;
29210;SDS011;16250;49.932;10.980;2024-03-08T04:31:12;36.40;;;30.27;;
29210;SDS011;16250;49.932;10.980;2024-03-08T04:33:37;40.13;;;32.55;;
29210;SDS011;16250;49.932;10.980;2024-03-08T04:36:04;38.05;;;31.73;;
29210;SDS011;16250;49.932;10.980;2024-03-08T04:38:29;39.63;;;31.63;;
29210;SDS011;16250;49.932;10.980;2024-03-08T04:40:55;39.90;;;33.30;;
29210;SDS011;16250;49.932;10.980;2024-03-08T04:43:21;36.72;;;32.05;;
29210;SDS011;16250;49.932;10.980;2024-03-08T04:45:48;40.00;;;31.92;;
29210;SDS011;16250;49.932;10.980;2024-03-08T04:48:13;40.50;;;32.65;;
29210;SDS011;16250;49.932;10.980;2024-03-08T04:50:39;38.72;;;32.55;;
29210;SDS011;16250;49.932;10.980;2024-03-08T04:53:04;38.22;;;32.47;;
29210;SDS011;16250;49.932;10.980;2024-03-08T04:55:33;38.60;;;32.08;;
29210;SDS011;16250;49.932;10.980;2024-03-08T04:57:59;38.45;;;32.63;;
29210;SDS011;16250;49.932;10.980;2024-03-08T05:00:24;36.95;;;31.80;;
29210;SDS011;16250;49.932;10.980;2024-03-08T05:02:50;41.17;;;33.25;;
29210;SDS011;16250;49.932;10.980;2024-03-08T05:05:18;38.72;;;33.33;;
29210;SDS011;16250;49.932;10.980;2024-03-08T05:07:43;41.45;;;34.80;;
29210;SDS011;16250;49.932;10.980;2024-03-08T05:10:10;42.60;;;35.33;;
29210;SDS011;16250;49.932;10.980;2024-03-08T05:12:36;39.50;;;33.65;;
29210;SDS011;16250;49.932;10.980;2024-03-08T05:15:04;44.08;;;34.58;;
29210;SDS011;16250;49.932;10.980;2024-03-08T05:17:30;42.53;;;34.33;;
29210;SDS011;16250;49.932;10.980;2024-03-08T05:19:55;42.05;;;34.47;;
29210;SDS011;16250;49.932;10.980;2024-03-08T05:22:21;45.25;;;36.13;;
29210;SDS011;16250;49.932;10.980;2024-03-08T05:24:47;43.67;;;35.85;;
29210;SDS011;16250;49.932;10.980;2024-03-08T05:27:13;43.67;;;35.92;;
29210;SDS011;16250;49.932;10.980;2024-03-08T05:29:38;44.00;;;36.55;;
29210;SDS011;16250;49.932;10.980;2024-03-08T05:32:04;46.30;;;38.13;;
29210;SDS011;16250;49.932;10.980;2024-03-08T05:34:29;47.40;;;37.92;;
29210;SDS011;16250;49.932;10.980;2024-03-08T05:36:55;48.22;;;36.92;;
29210;SDS011;16250;49.932;10.980;2024-03-08T05:39:20;44.72;;;34.85;;
29210;SDS011;16250;49.932;10.980;2024-03-08T05:41:46;44.10;;;36.40;;
29210;SDS011;16250;49.932;10.980;2024-03-08T05:44:12;48.20;;;36.72;;
29210;SDS011;16250;49.932;10.980;2024-03-08T05:46:38;46.88;;;35.10;;
29210;SDS011;16250;49.932;10.980;2024-03-08T05:49:03;46.55;;;36.10;;
29210;SDS011;16250;49.932;10.980;2024-03-08T05:51:33;45.65;;;36.92;;
29210;SDS011;16250;49.932;10.980;2024-03-08T05:54:00;46.05;;;37.35;;
29210;SDS011;16250;49.932;10.980;2024-03-08T05:56:29;49.08;;;38.17;;
29210;SDS011;16250;49.932;10.980;2024-03-08T05:58:54;46.75;;;36.25;;
29210;SDS011;16250;49.932;10.980;2024-03-08T06:01:19;48.30;;;41.15;;
29210;SDS011;16250;49.932;10.980;2024-03-08T06:03:45;46.45;;;39.97;;
29210;SDS011;16250;49.932;10.980;2024-03-08T06:06:14;47.20;;;36.60;;
29210;SDS011;16250;49.932;10.980;2024-03-08T06:08:40;45.92;;;35.53;;
29210;SDS011;16250;49.932;10.980;2024-03-08T06:11:08;47.58;;;35.80;;
29210;SDS011;16250;49.932;10.980;2024-03-08T06:13:33;45.65;;;36.47;;
29210;SDS011;16250;49.932;10.980;2024-03-08T06:15:59;44.25;;;36.13;;
29210;SDS011;16250;49.932;10.980;2024-03-08T06:18:25;44.30;;;36.67;;
29210;SDS011;16250;49.932;10.980;2024-03-08T06:20:51;48.25;;;36.90;;
29210;SDS011;16250;49.932;10.980;2024-03-08T06:23:16;45.00;;;36.30;;
29210;SDS011;16250;49.932;10.980;2024-03-08T06:25:44;46.72;;;36.65;;
29210;SDS011;16250;49.932;10.980;2024-03-08T06:28:11;43.60;;;35.05;;
29210;SDS011;16250;49.932;10.980;2024-03-08T06:30:36;47.15;;;36.25;;
29210;SDS011;16250;49.932;10.980;2024-03-08T06:33:02;46.55;;;35.50;;
29210;SDS011;16250;49.932;10.980;2024-03-08T06:35:27;49.05;;;38.13;;
29210;SDS011;16250;49.932;10.980;2024-03-08T06:37:52;46.05;;;35.10;;
29210;SDS011;16250;49.932;10.980;2024-03-08T06:40:18;52.00;;;38.50;;
29210;SDS011;16250;49.932;10.980;2024-03-08T06:42:43;49.17;;;36.65;;
29210;SDS011;16250;49.932;10.980;2024-03-08T06:45:09;51.00;;;38.78;;
29210;SDS011;16250;49.932;10.980;2024-03-08T06:47:35;45.75;;;35.95;;
29210;SDS011;16250;49.932;10.980;2024-03-08T06:50:02;51.05;;;38.08;;
29210;SDS011;16250;49.932;10.980;2024-03-08T06:52:29;50.85;;;38.13;;
29210;SDS011;16250;49.932;10.980;2024-03-08T06:54:54;50.55;;;38.42;;
29210;SDS011;16250;49.932;10.980;2024-03-08T06:57:20;48.03;;;38.05;;
29210;SDS011;16250;49.932;10.980;2024-03-08T06:59:48;50.17;;;37.88;;
29210;SDS011;16250;49.932;10.980;2024-03-08T07:02:14;49.28;;;38.30;;
29210;SDS011;16250;49.932;10.980;2024-03-08T07:04:39;51.58;;;38.33;;
29210;SDS011;16250;49.932;10.980;2024-03-08T07:07:05;53.30;;;39.28;;
29210;SDS011;16250;49.932;10.980;2024-03-08T07:09:34;49.53;;;37.72;;
29210;SDS011;16250;49.932;10.980;2024-03-08T07:12:02;47.17;;;37.58;;
29210;SDS011;16250;49.932;10.980;2024-03-08T07:14:29;48.45;;;37.53;;
29210;SDS011;16250;49.932;10.980;2024-03-08T07:16:54;46.58;;;36.15;;
29210;SDS011;16250;49.932;10.980;2024-03-08T07:19:19;48.55;;;37.05;;
29210;SDS011;16250;49.932;10.980;2024-03-08T07:21:46;43.35;;;34.38;;
29210;SDS011;16250;49.932;10.980;2024-03-08T07:24:12;44.92;;;36.33;;
29210;SDS011;16250;49.932;10.980;2024-03-08T07:26:53;47.67;;;35.28;;
29210;SDS011;16250;49.932;10.980;2024-03-08T07:29:19;43.88;;;34.10;;
29210;SDS011;16250;49.932;10.980;2024-03-08T07:31:44;45.65;;;35.30;;
29210;SDS011;16250;49.932;10.980;2024-03-08T07:34:17;44.15;;;33.22;;
29210;SDS011;16250;49.932;10.980;2024-03-08T07:36:42;43.65;;;33.78;;
29210;SDS011;16250;49.932;10.980;2024-03-08T07:39:08;40.83;;;33.15;;
29210;SDS011;16250;49.932;10.980;2024-03-08T07:41:39;42.08;;;34.53;;
29210;SDS011;16250;49.932;10.980;2024-03-08T07:44:05;44.63;;;34.60;;
29210;SDS011;16250;49.932;10.980;2024-03-08T07:46:32;43.15;;;33.22;;
29210;SDS011;16250;49.932;10.980;2024-03-08T07:48:59;39.83;;;32.15;;
29210;SDS011;16250;49.932;10.980;2024-03-08T07:51:24;41.47;;;33.47;;
29210;SDS011;16250;49.932;10.980;2024-03-08T07:53:50;41.22;;;33.15;;
29210;SDS011;16250;49.932;10.980;2024-03-08T07:56:15;40.10;;;32.67;;
29210;SDS011;16250;49.932;10.980;2024-03-08T07:58:44;39.42;;;31.77;;
29210;SDS011;16250;49.932;10.980;2024-03-08T08:01:16;38.70;;;31.10;;
29210;SDS011;16250;49.932;10.980;2024-03-08T08:03:45;40.88;;;32.90;;
29210;SDS011;16250;49.932;10.980;2024-03-08T08:06:11;40.75;;;32.75;;
29210;SDS011;16250;49.932;10.980;2024-03-08T08:08:44;40.83;;;32.83;;
29210;SDS011;16250;49.932;10.980;2024-03-08T08:11:10;40.83;;;33.00;;
29210;SDS011;16250;49.932;10.980;2024-03-08T08:13:40;38.05;;;31.23;;
29210;SDS011;16250;49.932;10.980;2024-03-08T08:16:08;44.72;;;32.22;;
29210;SDS011;16250;49.932;10.980;2024-03-08T08:18:34;38.83;;;31.30;;
29210;SDS011;16250;49.932;10.980;2024-03-08T08:21:01;40.30;;;32.85;;
29210;SDS011;16250;49.932;10.980;2024-03-08T08:23:27;42.45;;;31.90;;
29210;SDS011;16250;49.932;10.980;2024-03-08T08:25:52;38.80;;;31.17;;
29210;SDS011;16250;49.932;10.980;2024-03-08T08:28:18;41.08;;;31.65;;
29210;SDS011;16250;49.932;10.980;2024-03-08T08:30:46;37.72;;;31.63;;
29210;SDS011;16250;49.932;10.980;2024-03-08T08:33:12;40.80;;;32.22;;
29210;SDS011;16250;49.932;10.980;2024-03-08T08:35:40;39.55;;;31.92;;
29210;SDS011;16250;49.932;10.980;2024-03-08T08:38:05;40.70;;;32.03;;
29210;SDS011;16250;49.932;10.980;2024-03-08T08:40:32;41.80;;;33.53;;
29210;SDS011;16250;49.932;10.980;2024-03-08T08:42:58;41.45;;;32.10;;
29210;SDS011;16250;49.932;10.980;2024-03-08T08:45:24;38.85;;;31.10;;
29210;SDS011;16250;49.932;10.980;2024-03-08T08:47:50;39.08;;;31.23;;
29210;SDS011;16250;49.932;10.980;2024-03-08T08:50:15;39.72;;;31.05;;
29210;SDS011;16250;49.932;10.980;2024-03-08T08:52:41;38.22;;;30.70;;
29210;SDS011;16250;49.932;10.980;2024-03-08T08:55:10;39.20;;;31.70;;
29210;SDS011;16250;49.932;10.980;2024-03-08T08:57:39;37.72;;;29.75;;
29210;SDS011;16250;49.932;10.980;2024-03-08T09:00:05;37.35;;;29.83;;
29210;SDS011;16250;49.932;10.980;2024-03-08T09:02:39;40.00;;;30.50;;
29210;SDS011;16250;49.932;10.980;2024-03-08T09:05:06;39.42;;;30.65;;
29210;SDS011;16250;49.932;10.980;2024-03-08T09:07:32;40.75;;;30.90;;
29210;SDS011;16250;49.932;10.980;2024-03-08T09:09:58;39.28;;;30.83;;
29210;SDS011;16250;49.932;10.980;2024-03-08T09:12:24;36.80;;;30.10;;
29210;SDS011;16250;49.932;10.980;2024-03-08T09:14:50;35.75;;;29.83;;
29210;SDS011;16250;49.932;10.980;2024-03-08T09:17:15;39.55;;;29.77;;
29210;SDS011;16250;49.932;10.980;2024-03-08T09:19:45;39.17;;;30.00;;
29210;SDS011;16250;49.932;10.980;2024-03-08T09:22:12;38.65;;;30.13;;
29210;SDS011;16250;49.932;10.980;2024-03-08T09:24:38;36.72;;;28.92;;
29210;SDS011;16250;49.932;10.980;2024-03-08T09:27:03;33.28;;;27.95;;
29210;SDS011;16250;49.932;10.980;2024-03-08T09:29:29;35.35;;;28.38;;
29210;SDS011;16250;49.932;10.980;2024-03-08T09:31:54;36.75;;;29.55;;
29210;SDS011;16250;49.932;10.980;2024-03-08T09:34:20;35.78;;;28.30;;
29210;SDS011;16250;49.932;10.980;2024-03-08T09:36:46;34.33;;;27.95;;
29210;SDS011;16250;49.932;10.980;2024-03-08T09:39:11;36.40;;;28.77;;
29210;SDS011;16250;49.932;10.980;2024-03-08T09:41:42;38.75;;;29.08;;
29210;SDS011;16250;49.932;10.980;2024-03-08T09:44:08;39.20;;;29.95;;
29210;SDS011;16250;49.932;10.980;2024-03-08T09:46:34;37.85;;;30.55;;
29210;SDS011;16250;49.932;10.980;2024-03-08T09:48:59;36.38;;;29.45;;
29210;SDS011;16250;49.932;10.980;2024-03-08T09:51:27;35.95;;;28.55;;
29210;SDS011;16250;49.932;10.980;2024-03-08T09:53:53;35.42;;;28.58;;
29210;SDS011;16250;49.932;10.980;2024-03-08T09:56:19;38.38;;;28.30;;
29210;SDS011;16250;49.932;10.980;2024-03-08T09:58:45;34.83;;;28.70;;
29210;SDS011;16250;49.932;10.980;2024-03-08T10:01:42;37.65;;;28.40;;
29210;SDS011;16250;49.932;10.980;2024-03-08T10:04:10;39.03;;;29.92;;
29210;SDS011;16250;49.932;10.980;2024-03-08T10:06:37;35.90;;;28.75;;
29210;SDS011;16250;49.932;10.980;2024-03-08T10:09:02;35.75;;;28.23;;
29210;SDS011;16250;49.932;10.980;2024-03-08T10:11:27;37.58;;;28.63;;
29210;SDS011;16250;49.932;10.980;2024-03-08T10:13:53;36.28;;;27.38;;
29210;SDS011;16250;49.932;10.980;2024-03-08T10:16:19;34.58;;;26.70;;
29210;SDS011;16250;49.932;10.980;2024-03-08T10:18:45;34.30;;;26.48;;
29210;SDS011;16250;49.932;10.980;2024-03-08T10:21:10;33.42;;;26.67;;
29210;SDS011;16250;49.932;10.980;2024-03-08T10:23:36;32.40;;;25.15;;
29210;SDS011;16250;49.932;10.980;2024-03-08T10:26:14;31.95;;;27.08;;
29210;SDS011;16250;49.932;10.980;2024-03-08T10:28:41;32.30;;;25.83;;
29210;SDS011;16250;49.932;10.980;2024-03-08T10:31:10;29.85;;;25.08;;
29210;SDS011;16250;49.932;10.980;2024-03-08T10:33:35;34.40;;;26.05;;
29210;SDS011;16250;49.932;10.980;2024-03-08T10:36:03;29.00;;;24.27;;
29210;SDS011;16250;49.932;10.980;2024-03-08T10:41:13;28.35;;;22.55;;
29210;SDS011;16250;49.932;10.980;2024-03-08T10:49:31;29.08;;;21.55;;
29210;SDS011;16250;49.932;10.980;2024-03-08T10:51:59;26.98;;;21.00;;
29210;SDS011;16250;49.932;10.980;2024-03-08T10:54:28;30.63;;;21.30;;
29210;SDS011;16250;49.932;10.980;2024-03-08T10:56:54;28.85;;;20.88;;
29210;SDS011;16250;49.932;10.980;2024-03-08T10:59:20;27.77;;;20.88;;
29210;SDS011;16250;49.932;10.980;2024-03-08T11:01:46;29.88;;;21.48;;
29210;SDS011;16250;49.932;10.980;2024-03-08T11:04:11;28.80;;;22.35;;
29210;SDS011;16250;49.932;10.980;2024-03-08T11:09:03;23.35;;;20.83;;
29210;SDS011;16250;49.932;10.980;2024-03-08T11:11:29;27.30;;;21.38;;
29210;SDS011;16250;49.932;10.980;2024-03-08T11:13:57;26.48;;;21.17;;
29210;SDS011;16250;49.932;10.980;2024-03-08T11:18:55;27.80;;;21.83;;
29210;SDS011;16250;49.932;10.980;2024-03-08T11:21:22;27.58;;;21.15;;
29210;SDS011;16250;49.932;10.980;2024-03-08T11:24:00;25.75;;;19.80;;
29210;SDS011;16250;49.932;10.980;2024-03-08T11:26:27;27.02;;;21.58;;
29210;SDS011;16250;49.932;10.980;2024-03-08T11:28:56;27.48;;;21.73;;
29210;SDS011;16250;49.932;10.980;2024-03-08T11:34:43;28.33;;;21.15;;
29210;SDS011;16250;49.932;10.980;2024-03-08T11:37:12;26.77;;;21.40;;
29210;SDS011;16250;49.932;10.980;2024-03-08T11:39:49;31.95;;;20.85;;
29210;SDS011;16250;49.932;10.980;2024-03-08T11:42:16;23.10;;;19.02;;
29210;SDS011;16250;49.932;10.980;2024-03-08T11:44:47;25.65;;;20.25;;
29210;SDS011;16250;49.932;10.980;2024-03-08T11:47:13;26.75;;;20.23;;
29210;SDS011;16250;49.932;10.980;2024-03-08T11:49:39;25.35;;;19.63;;
29210;SDS011;16250;49.932;10.980;2024-03-08T11:52:12;23.75;;;19.35;;
29210;SDS011;16250;49.932;10.980;2024-03-08T11:54:41;26.20;;;21.27;;
29210;SDS011;16250;49.932;10.980;2024-03-08T11:57:08;24.33;;;20.50;;
29210;SDS011;16250;49.932;10.980;2024-03-08T11:59:35;27.02;;;20.83;;
29210;SDS011;16250;49.932;10.980;2024-03-08T12:02:06;26.38;;;20.58;;
29210;SDS011;16250;49.932;10.980;2024-03-08T12:04:35;24.60;;;19.67;;
29210;SDS011;16250;49.932;10.980;2024-03-08T12:07:01;29.05;;;21.10;;
29210;SDS011;16250;49.932;10.980;2024-03-08T12:09:35;24.73;;;19.27;;
29210;SDS011;16250;49.932;10.980;2024-03-08T12:12:01;24.40;;;18.48;;
29210;SDS011;16250;49.932;10.980;2024-03-08T12:14:29;24.45;;;20.08;;
29210;SDS011;16250;49.932;10.980;2024-03-08T12:16:54;25.15;;;20.08;;
29210;SDS011;16250;49.932;10.980;2024-03-08T12:19:20;26.35;;;19.77;;
29210;SDS011;16250;49.932;10.980;2024-03-08T12:21:45;22.55;;;18.15;;
29210;SDS011;16250;49.932;10.980;2024-03-08T12:24:18;20.67;;;17.13;;
29210;SDS011;16250;49.932;10.980;2024-03-08T12:26:46;25.00;;;17.83;;
29210;SDS011;16250;49.932;10.980;2024-03-08T12:29:17;21.80;;;17.38;;
29210;SDS011;16250;49.932;10.980;2024-03-08T12:31:54;21.40;;;17.27;;
29210;SDS011;16250;49.932;10.980;2024-03-08T12:34:21;20.48;;;17.50;;
29210;SDS011;16250;49.932;10.980;2024-03-08T12:36:47;21.17;;;17.10;;
29210;SDS011;16250;49.932;10.980;2024-03-08T12:39:15;19.65;;;16.35;;
29210;SDS011;16250;49.932;10.980;2024-03-08T12:41:42;19.35;;;15.30;;
29210;SDS011;16250;49.932;10.980;2024-03-08T12:44:08;21.33;;;16.95;;
29210;SDS011;16250;49.932;10.980;2024-03-08T12:46:36;22.95;;;16.60;;
29210;SDS011;16250;49.932;10.980;2024-03-08T12:49:05;20.83;;;16.63;;
29210;SDS011;16250;49.932;10.980;2024-03-08T12:51:37;21.40;;;16.02;;
29210;SDS011;16250;49.932;10.980;2024-03-08T12:54:04;21.05;;;15.27;;
29210;SDS011;16250;49.932;10.980;2024-03-08T12:56:33;20.42;;;16.20;;
29210;SDS011;16250;49.932;10.980;2024-03-08T12:58:59;21.63;;;16.55;;
29210;SDS011;16250;49.932;10.980;2024-03-08T13:01:25;18.15;;;15.48;;
29210;SDS011;16250;49.932;10.980;2024-03-08T13:03:51;19.60;;;16.25;;
29210;SDS011;16250;49.932;10.980;2024-03-08T13:06:18;18.88;;;15.30;;
29210;SDS011;16250;49.932;10.980;2024-03-08T13:08:44;20.10;;;14.68;;
29210;SDS011;16250;49.932;10.980;2024-03-08T13:11:10;18.13;;;14.93;;
29210;SDS011;16250;49.932;10.980;2024-03-08T13:13:42;17.50;;;12.98;;
29210;SDS011;16250;49.932;10.980;2024-03-08T13:16:09;17.92;;;13.52;;
29210;SDS011;16250;49.932;10.980;2024-03-08T13:18:36;16.70;;;13.77;;
29210;SDS011;16250;49.932;10.980;2024-03-08T13:21:03;18.42;;;14.05;;
29210;SDS011;16250;49.932;10.980;2024-03-08T13:23:33;17.77;;;14.57;;
29210;SDS011;16250;49.932;10.980;2024-03-08T13:26:05;18.40;;;13.90;;
29210;SDS011;16250;49.932;10.980;2024-03-08T13:28:33;17.83;;;13.82;;
29210;SDS011;16250;49.932;10.980;2024-03-08T13:31:02;17.85;;;13.07;;
29210;SDS011;16250;49.932;10.980;2024-03-08T13:33:31;15.93;;;12.40;;
29210;SDS011;16250;49.932;10.980;2024-03-08T13:36:04;15.52;;;12.98;;
29210;SDS011;16250;49.932;10.980;2024-03-08T13:38:31;12.73;;;10.85;;
29210;SDS011;16250;49.932;10.980;2024-03-08T13:40:58;15.38;;;12.38;;
29210;SDS011;16250;49.932;10.980;2024-03-08T13:43:25;15.00;;;12.77;;
29210;SDS011;16250;49.932;10.980;2024-03-08T13:45:50;15.50;;;11.95;;
29210;SDS011;16250;49.932;10.980;2024-03-08T13:48:17;15.38;;;12.15;;
29210;SDS011;16250;49.932;10.980;2024-03-08T13:50:42;16.15;;;12.30;;
29210;SDS011;16250;49.932;10.980;2024-03-08T13:53:08;14.35;;;11.93;;
29210;SDS011;16250;49.932;10.980;2024-03-08T13:55:35;17.00;;;13.77;;
29210;SDS011;16250;49.932;10.980;2024-03-08T13:58:00;17.70;;;14.15;;
29210;SDS011;16250;49.932;10.980;2024-03-08T14:00:25;16.55;;;14.23;;
29210;SDS011;16250;49.932;10.980;2024-03-08T14:02:54;17.52;;;13.77;;
29210;SDS011;16250;49.932;10.980;2024-03-08T14:05:19;16.33;;;13.80;;
29210;SDS011;16250;49.932;10.980;2024-03-08T14:07:48;18.50;;;13.00;;
29210;SDS011;16250;49.932;10.980;2024-03-08T14:10:14;15.60;;;13.25;;
29210;SDS011;16250;49.932;10.980;2024-03-08T14:12:40;19.05;;;14.10;;
29210;SDS011;16250;49.932;10.980;2024-03-08T14:15:05;14.45;;;12.95;;
29210;SDS011;16250;49.932;10.980;2024-03-08T14:17:31;15.93;;;12.40;;
29210;SDS011;16250;49.932;10.980;2024-03-08T14:19:57;14.68;;;12.85;;
29210;SDS011;16250;49.932;10.980;2024-03-08T14:22:24;15.60;;;12.25;;